Time;durP1;ratioP1;P1;durP2;ratioP2;P2;SDS_P1;SDS_P2;PMS_P1;PMS_P2;Temp;Humidity;BMP_temperature;BMP_pressure;BME280_temperature;BME280_humidity;BME280_pressure;Samples;Min_cycle;Max_cycle;Signal;HPM_P1;HPM_P2
2021/10/16 00:00:08;;;;;;;2.60;1.60;;;;;;;;;;4433209;32;20384;-55
2021/10/16 00:02:33;;;;;;;2.27;2.00;;;;;;;;;;4425675;32;20266;-54
2021/10/16 00:04:59;;;;;;;5.97;2.40;;;;;;;;;;4433507;32;20626;-54
2021/10/16 00:07:24;;;;;;;3.40;2.20;;;;;;;;;;4427442;32;20307;-54
2021/10/16 00:09:50;;;;;;;3.87;2.30;;;;;;;;;;4432325;32;20648;-55
2021/10/16 00:12:16;;;;;;;2.77;2.07;;;;;;;;;;4423475;32;20651;-57
2021/10/16 00:14:41;;;;;;;5.90;2.23;;;;;;;;;;4431057;32;20279;-56
2021/10/16 00:17:07;;;;;;;4.37;2.43;;;;;;;;;;4431550;32;20252;-56
2021/10/16 00:19:32;;;;;;;3.57;2.57;;;;;;;;;;4433058;32;20728;-56
2021/10/16 00:21:57;;;;;;;3.33;1.87;;;;;;;;;;4429398;32;20359;-54
2021/10/16 00:24:23;;;;;;;4.13;2.10;;;;;;;;;;4428963;32;20437;-55
2021/10/16 00:26:49;;;;;;;4.67;2.37;;;;;;;;;;4430763;32;20653;-56
2021/10/16 00:29:14;;;;;;;5.20;2.50;;;;;;;;;;4429526;32;20284;-57
2021/10/16 00:31:40;;;;;;;6.67;1.87;;;;;;;;;;4432079;32;20225;-55
2021/10/16 00:34:05;;;;;;;2.57;1.83;;;;;;;;;;4432593;32;20321;-55
2021/10/16 00:36:31;;;;;;;3.23;2.03;;;;;;;;;;4432718;32;20262;-54
2021/10/16 00:38:56;;;;;;;2.80;2.03;;;;;;;;;;4431242;32;20336;-55
2021/10/16 00:41:22;;;;;;;1.70;1.30;;;;;;;;;;4432741;32;20366;-55
2021/10/16 00:43:47;;;;;;;2.70;1.47;;;;;;;;;;4423954;32;20331;-54
2021/10/16 00:46:12;;;;;;;1.43;1.20;;;;;;;;;;4432219;32;20250;-54
2021/10/16 00:48:38;;;;;;;3.07;2.10;;;;;;;;;;4430497;32;20284;-55
2021/10/16 00:51:03;;;;;;;3.33;1.80;;;;;;;;;;4432344;32;20284;-55
2021/10/16 00:53:29;;;;;;;5.23;2.20;;;;;;;;;;4432266;32;20295;-55
2021/10/16 00:55:55;;;;;;;1.63;1.30;;;;;;;;;;4430870;32;20622;-55
2021/10/16 00:58:22;;;;;;;1.90;1.40;;;;;;;;;;4424404;32;20353;-54
2021/10/16 01:00:48;;;;;;;0.97;0.97;;;;;;;;;;4431678;32;20270;-54
2021/10/16 01:03:13;;;;;;;0.97;0.90;;;;;;;;;;4431203;32;20303;-55
2021/10/16 01:05:39;;;;;;;2.07;1.53;;;;;;;;;;4432265;32;20359;-54
2021/10/16 01:08:10;;;;;;;1.20;1.10;;;;;;;;;;4431390;32;20359;-54
2021/10/16 01:10:36;;;;;;;1.40;1.30;;;;;;;;;;4431828;32;20205;-55
2021/10/16 01:13:01;;;;;;;1.30;1.20;;;;;;;;;;4422172;32;20314;-55
2021/10/16 01:15:27;;;;;;;1.53;1.20;;;;;;;;;;4432321;32;20310;-55
2021/10/16 01:17:53;;;;;;;0.97;0.97;;;;;;;;;;4429489;32;20383;-56
2021/10/16 01:20:21;;;;;;;3.37;1.43;;;;;;;;;;4431873;32;20300;-55
2021/10/16 01:22:50;;;;;;;1.27;1.17;;;;;;;;;;4431117;32;20313;-55
2021/10/16 01:25:18;;;;;;;2.00;1.20;;;;;;;;;;4432179;32;20233;-55
2021/10/16 01:27:44;;;;;;;1.23;1.13;;;;;;;;;;4430803;32;20293;-55
2021/10/16 01:30:13;;;;;;;1.47;1.30;;;;;;;;;;4431390;32;20315;-56
2021/10/16 01:32:40;;;;;;;2.93;1.30;;;;;;;;;;4431260;32;20529;-55
2021/10/16 01:35:07;;;;;;;1.77;1.37;;;;;;;;;;4431779;32;20437;-56
2021/10/16 01:37:34;;;;;;;0.87;0.80;;;;;;;;;;4425666;32;20777;-55
2021/10/16 01:39:59;;;;;;;0.97;0.90;;;;;;;;;;4432958;32;20233;-55
2021/10/16 01:42:25;;;;;;;1.30;0.90;;;;;;;;;;4427659;32;20311;-54
2021/10/16 01:44:50;;;;;;;1.03;1.00;;;;;;;;;;4432532;32;20760;-55
2021/10/16 01:47:16;;;;;;;1.03;0.90;;;;;;;;;;4432706;32;20613;-55
2021/10/16 01:49:41;;;;;;;1.33;1.00;;;;;;;;;;4434704;32;20316;-55
2021/10/16 01:52:07;;;;;;;1.77;1.03;;;;;;;;;;4434457;32;20308;-54
2021/10/16 01:54:32;;;;;;;0.87;0.80;;;;;;;;;;4434549;32;20331;-54
2021/10/16 01:56:58;;;;;;;1.07;1.00;;;;;;;;;;4431884;32;20740;-55
2021/10/16 01:59:25;;;;;;;1.20;1.10;;;;;;;;;;4431021;32;20348;-57
2021/10/16 02:01:52;;;;;;;1.37;1.27;;;;;;;;;;4430752;32;20300;-55
2021/10/16 02:04:17;;;;;;;2.10;1.90;;;;;;;;;;4428937;32;20746;-55
2021/10/16 02:06:43;;;;;;;1.20;1.07;;;;;;;;;;4434555;32;20343;-55
2021/10/16 02:09:09;;;;;;;0.90;0.80;;;;;;;;;;4434258;32;20815;-56
2021/10/16 02:11:35;;;;;;;1.10;1.00;;;;;;;;;;4430443;32;20285;-54
2021/10/16 02:14:03;;;;;;;1.20;1.10;;;;;;;;;;4430173;32;20304;-55
2021/10/16 02:16:29;;;;;;;1.00;0.90;;;;;;;;;;4434547;32;20342;-54
2021/10/16 02:18:55;;;;;;;1.43;1.10;;;;;;;;;;4432039;32;20280;-54
2021/10/16 02:21:21;;;;;;;1.17;1.00;;;;;;;;;;4433945;32;20308;-54
2021/10/16 02:23:47;;;;;;;2.27;1.40;;;;;;;;;;4425765;32;20863;-54
2021/10/16 02:26:12;;;;;;;1.50;1.30;;;;;;;;;;4434472;32;20351;-54
2021/10/16 02:28:38;;;;;;;1.10;1.00;;;;;;;;;;4432199;32;20333;-55
2021/10/16 02:31:03;;;;;;;0.90;0.90;;;;;;;;;;4433665;32;20311;-54
2021/10/16 02:33:29;;;;;;;1.33;1.00;;;;;;;;;;4427260;32;20799;-56
2021/10/16 02:35:54;;;;;;;0.97;0.97;;;;;;;;;;4433938;32;20379;-55
2021/10/16 02:38:20;;;;;;;2.37;1.00;;;;;;;;;;4433252;32;20292;-55
2021/10/16 02:40:45;;;;;;;1.83;1.60;;;;;;;;;;4433925;32;20317;-54
2021/10/16 02:43:10;;;;;;;4.40;2.57;;;;;;;;;;4426637;32;20328;-54
2021/10/16 02:45:36;;;;;;;3.23;2.33;;;;;;;;;;4434275;32;20315;-54
2021/10/16 02:48:01;;;;;;;4.63;2.10;;;;;;;;;;4432670;32;20270;-54
2021/10/16 02:50:27;;;;;;;1.70;1.50;;;;;;;;;;4434255;32;20352;-54
2021/10/16 02:52:52;;;;;;;1.53;1.30;;;;;;;;;;4432248;32;20370;-54
2021/10/16 02:55:18;;;;;;;0.93;0.93;;;;;;;;;;4433970;32;20597;-55
2021/10/16 02:57:44;;;;;;;1.70;1.10;;;;;;;;;;4427250;32;20660;-55
2021/10/16 03:00:11;;;;;;;1.00;1.00;;;;;;;;;;4433703;32;20319;-55
2021/10/16 03:02:37;;;;;;;1.10;1.00;;;;;;;;;;4432250;32;20323;-55
2021/10/16 03:05:03;;;;;;;1.00;0.90;;;;;;;;;;4433783;32;20355;-55
2021/10/16 03:07:29;;;;;;;1.20;0.90;;;;;;;;;;4433027;32;20259;-55
2021/10/16 03:09:55;;;;;;;1.40;1.30;;;;;;;;;;4433599;32;20321;-55
2021/10/16 03:12:21;;;;;;;4.00;1.13;;;;;;;;;;4424190;32;20330;-56
2021/10/16 03:14:46;;;;;;;1.20;1.10;;;;;;;;;;4431926;32;20296;-58
2021/10/16 03:17:12;;;;;;;2.57;1.40;;;;;;;;;;4431860;32;20866;-56
2021/10/16 03:19:37;;;;;;;1.43;1.33;;;;;;;;;;4431476;32;20382;-55
2021/10/16 03:22:03;;;;;;;2.37;1.30;;;;;;;;;;4433056;32;20650;-54
2021/10/16 03:24:29;;;;;;;1.77;1.30;;;;;;;;;;4433110;32;20735;-56
2021/10/16 03:26:54;;;;;;;1.13;1.03;;;;;;;;;;4432399;32;20249;-55
2021/10/16 03:29:19;;;;;;;1.20;1.10;;;;;;;;;;4432129;32;20299;-54
2021/10/16 03:31:45;;;;;;;1.77;1.53;;;;;;;;;;4433228;32;20274;-55
2021/10/16 03:34:12;;;;;;;2.40;1.50;;;;;;;;;;4433295;32;20362;-55
2021/10/16 03:36:37;;;;;;;1.63;1.23;;;;;;;;;;4432917;32;20587;-55
2021/10/16 03:39:03;;;;;;;1.57;1.10;;;;;;;;;;4427092;32;20322;-55
2021/10/16 03:41:28;;;;;;;1.30;1.20;;;;;;;;;;4433220;32;20258;-56
2021/10/16 03:43:54;;;;;;;4.23;1.30;;;;;;;;;;4424148;32;20299;-55
2021/10/16 03:46:19;;;;;;;2.43;1.93;;;;;;;;;;4433239;32;20629;-55
2021/10/16 03:48:45;;;;;;;2.73;2.23;;;;;;;;;;4430996;32;20292;-54
2021/10/16 03:51:10;;;;;;;5.43;3.50;;;;;;;;;;4432047;32;20425;-54
2021/10/16 03:53:36;;;;;;;5.20;3.50;;;;;;;;;;4432754;32;20738;-56
2021/10/16 03:56:01;;;;;;;6.53;3.40;;;;;;;;;;4433035;32;20299;-55
2021/10/16 03:58:27;;;;;;;6.67;3.23;;;;;;;;;;4425332;32;20299;-55
2021/10/16 04:00:58;;;;;;;6.60;4.00;;;;;;;;;;4432707;32;20439;-56
2021/10/16 04:03:24;;;;;;;6.33;3.87;;;;;;;;;;4420777;32;20229;-54
2021/10/16 04:05:49;;;;;;;5.97;3.10;;;;;;;;;;4431028;32;20339;-54
2021/10/16 04:08:15;;;;;;;5.90;3.97;;;;;;;;;;4425102;32;20322;-55
2021/10/16 04:10:40;;;;;;;5.13;3.90;;;;;;;;;;4429247;32;20877;-55
2021/10/16 04:13:06;;;;;;;6.23;3.40;;;;;;;;;;4428000;32;20331;-55
2021/10/16 04:15:31;;;;;;;8.87;4.40;;;;;;;;;;4432635;32;20363;-55
2021/10/16 04:17:56;;;;;;;13.10;3.43;;;;;;;;;;4431525;32;20327;-55
2021/10/16 04:20:22;;;;;;;5.93;4.03;;;;;;;;;;4433232;32;20379;-55
2021/10/16 04:22:48;;;;;;;7.63;4.10;;;;;;;;;;4424007;32;20477;-55
2021/10/16 04:25:13;;;;;;;7.07;4.43;;;;;;;;;;4432328;32;20283;-57
2021/10/16 04:27:39;;;;;;;12.87;5.33;;;;;;;;;;4425900;32;20251;-55
2021/10/16 04:30:05;;;;;;;13.17;5.60;;;;;;;;;;4431178;32;20334;-55
2021/10/16 04:32:30;;;;;;;8.67;5.57;;;;;;;;;;4425833;32;20580;-55
2021/10/16 04:34:56;;;;;;;8.80;4.67;;;;;;;;;;4430214;32;20355;-54
2021/10/16 04:37:21;;;;;;;7.73;4.60;;;;;;;;;;4431862;32;20668;-54
2021/10/16 04:39:47;;;;;;;12.17;5.60;;;;;;;;;;4432547;32;20325;-53
2021/10/16 04:42:12;;;;;;;10.93;6.80;;;;;;;;;;4432137;32;20386;-53
2021/10/16 04:44:41;;;;;;;11.97;7.27;;;;;;;;;;4431141;32;20387;-54
2021/10/16 04:47:07;;;;;;;14.40;7.73;;;;;;;;;;4428754;32;20275;-55
2021/10/16 04:49:34;;;;;;;14.37;7.60;;;;;;;;;;4429508;32;20325;-55
2021/10/16 04:52:04;;;;;;;15.13;7.40;;;;;;;;;;4427403;32;20257;-55
2021/10/16 04:54:30;;;;;;;12.23;5.60;;;;;;;;;;4427880;32;20221;-55
2021/10/16 04:56:56;;;;;;;7.67;5.07;;;;;;;;;;4430415;32;20217;-55
2021/10/16 04:59:22;;;;;;;8.50;4.50;;;;;;;;;;4431751;32;20271;-55
2021/10/16 05:01:47;;;;;;;5.77;4.00;;;;;;;;;;4430859;32;20256;-54
2021/10/16 05:04:12;;;;;;;5.57;3.40;;;;;;;;;;4430847;32;20317;-55
2021/10/16 05:06:38;;;;;;;5.00;3.53;;;;;;;;;;4431351;32;20399;-55
2021/10/16 05:09:03;;;;;;;8.33;5.00;;;;;;;;;;4430410;32;20335;-55
2021/10/16 05:11:29;;;;;;;11.43;6.80;;;;;;;;;;4428281;32;20756;-54
2021/10/16 05:13:55;;;;;;;14.10;6.90;;;;;;;;;;4424248;32;20292;-55
2021/10/16 05:16:20;;;;;;;12.90;6.93;;;;;;;;;;4431574;32;20387;-54
2021/10/16 05:18:46;;;;;;;13.47;8.33;;;;;;;;;;4430485;32;20224;-55
2021/10/16 05:21:13;;;;;;;12.63;9.23;;;;;;;;;;4430390;32;20221;-55
2021/10/16 05:23:38;;;;;;;10.57;7.37;;;;;;;;;;4423438;32;20225;-53
2021/10/16 05:26:04;;;;;;;15.90;8.30;;;;;;;;;;4431943;32;20719;-54
2021/10/16 05:28:30;;;;;;;14.50;9.17;;;;;;;;;;4429108;32;20351;-54
2021/10/16 05:30:55;;;;;;;24.23;10.70;;;;;;;;;;4431412;32;20375;-55
2021/10/16 05:33:21;;;;;;;22.43;11.70;;;;;;;;;;4431452;32;20658;-56
2021/10/16 05:35:46;;;;;;;23.40;14.43;;;;;;;;;;4431804;32;20303;-56
2021/10/16 05:38:12;;;;;;;24.57;14.30;;;;;;;;;;4430589;32;20296;-57
2021/10/16 05:40:39;;;;;;;28.53;17.30;;;;;;;;;;4431887;32;20449;-53
2021/10/16 05:43:05;;;;;;;23.20;15.90;;;;;;;;;;4431281;32;20233;-53
2021/10/16 05:45:30;;;;;;;17.83;11.70;;;;;;;;;;4432006;32;20590;-55
2021/10/16 05:47:56;;;;;;;22.70;13.80;;;;;;;;;;4424526;32;20763;-55
2021/10/16 05:50:21;;;;;;;22.73;13.17;;;;;;;;;;4431996;32;20318;-55
2021/10/16 05:52:47;;;;;;;33.80;15.97;;;;;;;;;;4424455;32;20280;-55
2021/10/16 05:55:12;;;;;;;31.73;17.60;;;;;;;;;;4430270;32;20409;-55
2021/10/16 05:57:37;;;;;;;27.00;16.40;;;;;;;;;;4426857;32;20645;-55
2021/10/16 06:00:04;;;;;;;33.47;19.63;;;;;;;;;;4431606;32;20284;-55
2021/10/16 06:02:29;;;;;;;31.30;17.63;;;;;;;;;;4424708;32;20249;-55
2021/10/16 06:04:55;;;;;;;39.17;20.40;;;;;;;;;;4429499;32;20693;-55
2021/10/16 06:07:20;;;;;;;34.97;19.73;;;;;;;;;;4426758;32;20267;-56
2021/10/16 06:09:46;;;;;;;34.40;19.00;;;;;;;;;;4430069;32;20558;-55
2021/10/16 06:12:11;;;;;;;34.90;19.27;;;;;;;;;;4426105;32;20343;-55
2021/10/16 06:14:37;;;;;;;39.50;18.47;;;;;;;;;;4429868;32;20331;-57
2021/10/16 06:17:03;;;;;;;34.40;19.43;;;;;;;;;;4429768;32;20316;-56
2021/10/16 06:19:29;;;;;;;29.33;18.13;;;;;;;;;;4430426;32;20299;-56
2021/10/16 06:21:55;;;;;;;33.40;17.70;;;;;;;;;;4428517;32;20225;-57
2021/10/16 06:24:20;;;;;;;26.53;17.20;;;;;;;;;;4428640;32;20539;-56
2021/10/16 06:26:45;;;;;;;23.43;15.23;;;;;;;;;;4429857;32;20319;-56
2021/10/16 06:29:11;;;;;;;28.80;17.23;;;;;;;;;;4429068;32;20334;-55
2021/10/16 06:31:36;;;;;;;28.17;16.43;;;;;;;;;;4432439;32;20228;-55
2021/10/16 06:34:02;;;;;;;26.93;15.00;;;;;;;;;;4427731;32;20726;-55
2021/10/16 06:36:28;;;;;;;22.73;13.70;;;;;;;;;;4433556;32;20334;-55
2021/10/16 06:38:53;;;;;;;21.63;14.77;;;;;;;;;;4430886;32;20337;-54
2021/10/16 06:41:19;;;;;;;25.30;15.03;;;;;;;;;;4431067;32;20268;-55
2021/10/16 06:43:44;;;;;;;27.77;16.13;;;;;;;;;;4430264;32;20360;-55
2021/10/16 06:46:09;;;;;;;28.80;18.40;;;;;;;;;;4432184;32;20762;-55
2021/10/16 06:48:35;;;;;;;38.87;19.57;;;;;;;;;;4425538;32;20732;-54
2021/10/16 06:51:00;;;;;;;23.47;14.63;;;;;;;;;;4430196;32;20390;-54
2021/10/16 06:53:26;;;;;;;20.40;13.80;;;;;;;;;;4426955;32;20720;-55
2021/10/16 06:55:51;;;;;;;21.63;13.50;;;;;;;;;;4431981;32;20384;-55
2021/10/16 06:58:17;;;;;;;17.67;12.17;;;;;;;;;;4431529;32;20644;-55
2021/10/16 07:00:42;;;;;;;18.10;11.53;;;;;;;;;;4433231;32;20546;-54
2021/10/16 07:03:08;;;;;;;25.83;12.60;;;;;;;;;;4428681;32;20236;-56
2021/10/16 07:05:34;;;;;;;23.20;13.57;;;;;;;;;;4433800;32;20295;-54
2021/10/16 07:08:00;;;;;;;23.10;14.13;;;;;;;;;;4432078;32;20244;-54
2021/10/16 07:10:25;;;;;;;19.60;13.03;;;;;;;;;;4433455;32;20815;-56
2021/10/16 07:12:52;;;;;;;27.70;16.07;;;;;;;;;;4438330;32;20576;-55
2021/10/16 07:15:18;;;;;;;21.57;12.50;;;;;;;;;;4437635;32;20631;-56
2021/10/16 07:17:43;;;;;;;23.93;12.33;;;;;;;;;;4435700;32;20291;-55
2021/10/16 07:20:09;;;;;;;24.03;14.00;;;;;;;;;;4433515;32;20299;-55
2021/10/16 07:22:35;;;;;;;22.07;13.20;;;;;;;;;;4433803;32;20622;-55
2021/10/16 07:25:01;;;;;;;20.77;11.63;;;;;;;;;;4433318;32;20325;-55
2021/10/16 07:27:26;;;;;;;24.00;10.60;;;;;;;;;;4429633;32;20247;-55
2021/10/16 07:29:52;;;;;;;14.67;9.33;;;;;;;;;;4433272;32;20292;-56
2021/10/16 07:32:17;;;;;;;13.13;9.13;;;;;;;;;;4432702;32;20248;-55
2021/10/16 07:34:43;;;;;;;16.53;9.67;;;;;;;;;;4432591;32;20457;-55
2021/10/16 07:37:08;;;;;;;18.20;9.30;;;;;;;;;;4432599;32;20618;-56
2021/10/16 07:39:34;;;;;;;14.30;10.37;;;;;;;;;;4433730;32;20366;-55
2021/10/16 07:41:59;;;;;;;13.03;9.63;;;;;;;;;;4432245;32;20225;-55
2021/10/16 07:44:25;;;;;;;13.90;10.03;;;;;;;;;;4431452;32;20389;-55
2021/10/16 07:46:50;;;;;;;17.20;10.23;;;;;;;;;;4421999;32;20317;-56
2021/10/16 07:49:16;;;;;;;20.70;12.57;;;;;;;;;;4431318;32;20379;-56
2021/10/16 07:51:41;;;;;;;32.70;19.73;;;;;;;;;;4430741;32;20246;-55
2021/10/16 07:54:07;;;;;;;26.90;17.50;;;;;;;;;;4431836;32;20304;-55
2021/10/16 07:56:33;;;;;;;24.97;16.33;;;;;;;;;;4428784;32;20327;-55
2021/10/16 07:58:59;;;;;;;30.53;18.37;;;;;;;;;;4428636;32;20296;-56
2021/10/16 08:01:24;;;;;;;23.27;15.67;;;;;;;;;;4426087;32;20251;-55
2021/10/16 08:03:50;;;;;;;19.23;11.83;;;;;;;;;;4432651;32;20550;-55
2021/10/16 08:06:15;;;;;;;16.03;9.60;;;;;;;;;;4430679;32;20300;-55
2021/10/16 08:08:41;;;;;;;17.80;10.83;;;;;;;;;;4433617;32;20307;-54
2021/10/16 08:11:06;;;;;;;18.87;10.90;;;;;;;;;;4430839;32;20794;-55
2021/10/16 08:13:32;;;;;;;14.87;9.63;;;;;;;;;;4432234;32;20319;-55
2021/10/16 08:15:58;;;;;;;21.77;12.80;;;;;;;;;;4428020;32;20369;-55
2021/10/16 08:18:24;;;;;;;20.50;12.40;;;;;;;;;;4432566;32;20323;-55
2021/10/16 08:20:49;;;;;;;20.67;13.23;;;;;;;;;;4432328;32;20291;-55
2021/10/16 08:23:15;;;;;;;31.57;17.33;;;;;;;;;;4424328;32;20276;-56
2021/10/16 08:25:41;;;;;;;27.23;16.57;;;;;;;;;;4427400;32;20746;-55
2021/10/16 08:28:08;;;;;;;27.60;16.93;;;;;;;;;;4419363;32;20625;-55
2021/10/16 08:30:34;;;;;;;36.60;20.67;;;;;;;;;;4427801;32;20326;-55
2021/10/16 08:32:59;;;;;;;31.37;18.07;;;;;;;;;;4424647;32;20245;-55
2021/10/16 08:35:25;;;;;;;24.63;13.80;;;;;;;;;;4430812;32;20310;-54
2021/10/16 08:37:50;;;;;;;27.87;14.47;;;;;;;;;;4420464;32;20602;-56
2021/10/16 08:40:16;;;;;;;19.87;11.40;;;;;;;;;;4430561;32;20823;-56
2021/10/16 08:42:42;;;;;;;18.47;12.93;;;;;;;;;;4426923;32;20282;-55
2021/10/16 08:45:08;;;;;;;18.00;11.63;;;;;;;;;;4431803;32;20483;-55
2021/10/16 08:47:36;;;;;;;16.27;9.67;;;;;;;;;;4431665;32;20252;-54
2021/10/16 08:50:04;;;;;;;17.57;8.40;;;;;;;;;;4431602;32;20534;-55
2021/10/16 08:52:30;;;;;;;10.10;7.23;;;;;;;;;;4428344;32;20245;-55
2021/10/16 08:54:59;;;;;;;8.23;5.47;;;;;;;;;;4425634;32;20272;-54
2021/10/16 08:57:32;;;;;;;7.00;5.03;;;;;;;;;;4425730;32;20247;-55
2021/10/16 08:59:58;;;;;;;9.17;4.50;;;;;;;;;;4429950;32;20475;-55
2021/10/16 09:02:36;;;;;;;20.17;14.00;;;;;;;;;;4422744;32;20840;-54
2021/10/16 09:05:13;;;;;;;23.87;15.07;;;;;;;;;;4430857;32;20562;-54
2021/10/16 09:07:39;;;;;;;24.47;16.17;;;;;;;;;;4424125;32;20267;-55
2021/10/16 09:10:22;;;;;;;22.07;11.23;;;;;;;;;;4429222;32;20392;-56
2021/10/16 09:12:48;;;;;;;27.63;15.17;;;;;;;;;;4422817;32;20251;-55
2021/10/16 09:15:21;;;;;;;10.30;6.87;;;;;;;;;;4423775;32;20358;-55
2021/10/16 09:18:01;;;;;;;25.07;12.20;;;;;;;;;;4420784;32;20249;-55
2021/10/16 09:20:38;;;;;;;19.53;10.97;;;;;;;;;;4417870;32;20805;-55
2021/10/16 09:23:10;;;;;;;15.63;11.63;;;;;;;;;;4426693;32;20403;-55
2021/10/16 09:25:36;;;;;;;25.97;15.10;;;;;;;;;;4429867;32;20354;-55
2021/10/16 09:28:17;;;;;;;31.37;15.63;;;;;;;;;;4431789;32;20232;-55
2021/10/16 09:30:44;;;;;;;32.30;19.10;;;;;;;;;;4432074;32;20226;-55
2021/10/16 09:33:10;;;;;;;31.50;18.17;;;;;;;;;;4432217;32;20248;-58
2021/10/16 09:35:35;;;;;;;25.57;14.23;;;;;;;;;;4431668;32;20360;-59
2021/10/16 09:38:00;;;;;;;23.27;12.57;;;;;;;;;;4430869;32;20229;-57
2021/10/16 09:40:37;;;;;;;14.67;9.27;;;;;;;;;;4432089;32;20351;-57
2021/10/16 09:43:19;;;;;;;16.47;9.53;;;;;;;;;;4431757;32;20291;-57
2021/10/16 09:45:46;;;;;;;17.07;8.17;;;;;;;;;;4431756;32;20213;-58
2021/10/16 09:48:13;;;;;;;21.57;12.87;;;;;;;;;;4432283;32;20239;-57
2021/10/16 09:50:59;;;;;;;20.40;14.23;;;;;;;;;;4430754;32;20235;-57
2021/10/16 09:53:24;;;;;;;23.53;14.30;;;;;;;;;;4432268;32;20208;-57
2021/10/16 09:55:50;;;;;;;21.10;13.20;;;;;;;;;;4431235;32;20345;-57
2021/10/16 09:58:16;;;;;;;26.47;13.67;;;;;;;;;;4431963;32;20279;-58
2021/10/16 10:00:41;;;;;;;21.63;11.37;;;;;;;;;;4432233;32;20593;-58
2021/10/16 10:03:09;;;;;;;16.27;10.50;;;;;;;;;;4434153;32;20267;-57
2021/10/16 10:05:34;;;;;;;19.17;13.10;;;;;;;;;;4434170;32;20545;-57
2021/10/16 10:08:00;;;;;;;19.57;12.43;;;;;;;;;;4434703;32;20248;-57
2021/10/16 10:10:28;;;;;;;17.33;10.70;;;;;;;;;;4434749;32;20379;-57
2021/10/16 10:12:55;;;;;;;20.83;13.27;;;;;;;;;;4430877;32;20653;-57
2021/10/16 10:15:21;;;;;;;19.47;11.60;;;;;;;;;;4427681;32;20205;-56
2021/10/16 10:17:47;;;;;;;13.73;9.23;;;;;;;;;;4433776;32;20268;-56
2021/10/16 10:20:13;;;;;;;10.23;5.93;;;;;;;;;;4434155;32;20322;-56
2021/10/16 10:22:40;;;;;;;4.93;3.60;;;;;;;;;;4434493;32;20299;-56
2021/10/16 10:25:25;;;;;;;7.20;3.83;;;;;;;;;;4429863;32;20235;-56
2021/10/16 10:27:55;;;;;;;13.27;9.03;;;;;;;;;;4433940;32;20225;-54
2021/10/16 10:30:36;;;;;;;14.60;10.43;;;;;;;;;;4433568;32;20238;-56
2021/10/16 10:33:16;;;;;;;101.20;25.30;;;;;;;;;;4423018;32;20228;-55
2021/10/16 10:36:00;;;;;;;23.63;12.50;;;;;;;;;;4427828;32;21118;-55
2021/10/16 10:38:35;;;;;;;13.10;7.67;;;;;;;;;;4434146;32;20320;-55
2021/10/16 10:41:23;;;;;;;12.83;7.33;;;;;;;;;;4450853;32;20295;-56
2021/10/16 10:43:49;;;;;;;22.57;11.63;;;;;;;;;;4427204;32;20562;-55
2021/10/16 10:46:14;;;;;;;20.20;11.63;;;;;;;;;;4429853;32;20251;-55
2021/10/16 10:48:45;;;;;;;24.87;14.60;;;;;;;;;;4433501;32;20370;-54
2021/10/16 10:51:26;;;;;;;13.27;7.53;;;;;;;;;;4434087;32;20275;-56
2021/10/16 10:54:21;;;;;;;34.67;12.70;;;;;;;;;;4433914;32;20249;-55
2021/10/16 10:56:55;;;;;;;12.00;7.87;;;;;;;;;;4430137;32;20251;-56
2021/10/16 10:59:21;;;;;;;5.50;3.90;;;;;;;;;;4433868;32;20189;-55
2021/10/16 11:01:52;;;;;;;9.60;5.27;;;;;;;;;;4432625;32;20296;-55
2021/10/16 11:04:38;;;;;;;9.63;5.90;;;;;;;;;;4429365;32;20604;-56
2021/10/16 11:07:06;;;;;;;8.23;5.43;;;;;;;;;;4432105;32;20867;-55
2021/10/16 11:09:33;;;;;;;10.40;5.67;;;;;;;;;;4422516;32;20247;-55
2021/10/16 11:11:59;;;;;;;11.13;6.23;;;;;;;;;;4431855;32;20260;-56
2021/10/16 11:14:37;;;;;;;3.90;2.37;;;;;;;;;;4432701;32;20364;-56
2021/10/16 11:17:12;;;;;;;3.27;2.40;;;;;;;;;;4433361;32;20224;-56
2021/10/16 11:19:53;;;;;;;9.90;5.27;;;;;;;;;;4432785;32;20216;-56
2021/10/16 11:22:20;;;;;;;11.27;7.67;;;;;;;;;;4430456;32;20268;-56
2021/10/16 11:24:46;;;;;;;14.80;8.33;;;;;;;;;;4431273;32;20576;-57
2021/10/16 11:27:11;;;;;;;12.27;5.63;;;;;;;;;;4431660;32;20248;-56
2021/10/16 11:29:40;;;;;;;8.27;4.97;;;;;;;;;;4431640;32;20620;-56
2021/10/16 11:32:17;;;;;;;14.20;8.23;;;;;;;;;;4432025;32;20228;-56
2021/10/16 11:34:55;;;;;;;13.30;4.80;;;;;;;;;;4432085;32;20441;-57
2021/10/16 11:37:33;;;;;;;7.27;3.50;;;;;;;;;;4415443;32;20245;-56
2021/10/16 11:40:09;;;;;;;9.47;5.30;;;;;;;;;;4424439;32;20327;-55
2021/10/16 11:42:36;;;;;;;11.10;6.67;;;;;;;;;;4434027;32;20669;-56
2021/10/16 11:45:03;;;;;;;12.47;5.57;;;;;;;;;;4433485;32;20271;-56
2021/10/16 11:47:29;;;;;;;11.47;4.87;;;;;;;;;;4433699;32;20330;-56
2021/10/16 11:49:54;;;;;;;12.57;5.10;;;;;;;;;;4431599;32;20295;-56
2021/10/16 11:52:21;;;;;;;18.17;8.67;;;;;;;;;;4432535;32;20317;-57
2021/10/16 11:54:47;;;;;;;12.50;8.07;;;;;;;;;;4432313;32;20233;-55
2021/10/16 11:57:24;;;;;;;26.17;14.57;;;;;;;;;;4432508;32;20362;-55
2021/10/16 11:59:50;;;;;;;25.57;13.13;;;;;;;;;;4433338;32;20280;-57
2021/10/16 12:02:33;;;;;;;38.30;15.57;;;;;;;;;;4432049;32;20330;-57
2021/10/16 12:05:09;;;;;;;26.63;11.03;;;;;;;;;;4434090;32;20762;-55
2021/10/16 12:07:35;;;;;;;25.87;10.73;;;;;;;;;;4433741;32;20260;-56
2021/10/16 12:10:37;;;;;;;21.50;11.73;;;;;;;;;;4431838;32;20406;-57
2021/10/16 12:13:10;;;;;;;34.73;11.53;;;;;;;;;;4400544;32;20327;-57
2021/10/16 12:15:47;;;;;;;19.23;11.07;;;;;;;;;;4424742;32;20335;-56
2021/10/16 12:18:27;;;;;;;26.53;14.10;;;;;;;;;;4431314;32;20225;-56
2021/10/16 12:20:55;;;;;;;47.17;17.67;;;;;;;;;;4431217;32;20266;-56
2021/10/16 12:23:23;;;;;;;27.03;16.70;;;;;;;;;;4432096;32;20212;-57
2021/10/16 12:25:49;;;;;;;34.87;18.17;;;;;;;;;;4431828;32;20325;-57
2021/10/16 12:28:15;;;;;;;33.33;19.27;;;;;;;;;;4433237;32;20590;-57
2021/10/16 12:31:03;;;;;;;32.57;17.80;;;;;;;;;;4432826;32;20347;-56
2021/10/16 12:33:30;;;;;;;38.23;17.33;;;;;;;;;;4418375;32;20627;-56
2021/10/16 12:36:00;;;;;;;26.33;14.17;;;;;;;;;;4431267;32;20649;-55
2021/10/16 12:38:27;;;;;;;23.17;12.97;;;;;;;;;;4433146;32;20229;-56
2021/10/16 12:40:53;;;;;;;20.60;11.50;;;;;;;;;;4431548;32;20306;-56
2021/10/16 12:43:24;;;;;;;30.83;13.70;;;;;;;;;;4433311;32;20223;-56
2021/10/16 12:45:49;;;;;;;28.03;17.57;;;;;;;;;;4432810;32;20209;-56
2021/10/16 12:48:36;;;;;;;56.70;29.17;;;;;;;;;;4433356;32;20286;-55
2021/10/16 12:51:03;;;;;;;52.60;26.47;;;;;;;;;;4432718;32;20656;-56
2021/10/16 12:53:54;;;;;;;36.70;17.23;;;;;;;;;;4431832;32;20259;-56
2021/10/16 12:56:24;;;;;;;22.00;12.53;;;;;;;;;;4433076;32;20281;-55
2021/10/16 12:58:53;;;;;;;20.30;11.03;;;;;;;;;;4431573;32;20232;-56
2021/10/16 13:01:18;;;;;;;20.10;11.53;;;;;;;;;;4430845;32;20220;-56
2021/10/16 13:03:44;;;;;;;15.60;8.00;;;;;;;;;;4433028;32;20282;-56
2021/10/16 13:06:09;;;;;;;20.97;9.90;;;;;;;;;;4432812;32;20601;-56
2021/10/16 13:08:35;;;;;;;20.47;11.43;;;;;;;;;;4441569;32;20268;-56
2021/10/16 13:11:00;;;;;;;20.27;9.73;;;;;;;;;;4431633;32;20348;-57
2021/10/16 13:13:25;;;;;;;28.40;12.53;;;;;;;;;;4431525;32;20332;-56
2021/10/16 13:15:51;;;;;;;17.67;9.33;;;;;;;;;;4430294;32;20311;-55
2021/10/16 13:18:16;;;;;;;10.40;7.30;;;;;;;;;;4432018;32;20295;-55
2021/10/16 13:20:42;;;;;;;10.67;6.30;;;;;;;;;;4431379;32;20349;-56
2021/10/16 13:23:08;;;;;;;11.57;6.93;;;;;;;;;;4431122;32;20323;-55
2021/10/16 13:25:33;;;;;;;26.27;11.70;;;;;;;;;;4431632;32;20422;-55
2021/10/16 13:27:59;;;;;;;27.07;11.63;;;;;;;;;;4431077;32;20347;-55
2021/10/16 13:30:24;;;;;;;30.23;12.87;;;;;;;;;;4433042;32;20641;-55
2021/10/16 13:32:50;;;;;;;15.67;9.00;;;;;;;;;;4432574;32;20328;-56
2021/10/16 13:35:16;;;;;;;19.00;11.37;;;;;;;;;;4432165;32;20789;-56
2021/10/16 13:37:42;;;;;;;16.07;6.83;;;;;;;;;;4434774;32;20253;-56
2021/10/16 13:40:08;;;;;;;20.87;11.67;;;;;;;;;;4435727;32;20359;-55
2021/10/16 13:42:35;;;;;;;15.20;9.07;;;;;;;;;;4421389;32;20311;-55
2021/10/16 13:45:01;;;;;;;25.97;12.27;;;;;;;;;;4435429;32;20208;-56
2021/10/16 13:47:26;;;;;;;33.90;18.00;;;;;;;;;;4435504;32;20216;-56
2021/10/16 13:49:52;;;;;;;45.63;24.60;;;;;;;;;;4435389;32;20303;-55
2021/10/16 13:52:18;;;;;;;44.77;22.93;;;;;;;;;;4436090;32;20221;-55
2021/10/16 13:54:43;;;;;;;40.40;21.70;;;;;;;;;;4435029;32;20682;-55
2021/10/16 13:57:09;;;;;;;34.40;19.20;;;;;;;;;;4435445;32;20271;-55
2021/10/16 13:59:34;;;;;;;12.97;5.37;;;;;;;;;;4435545;32;20780;-57
2021/10/16 14:01:59;;;;;;;10.20;6.13;;;;;;;;;;4426000;32;20367;-56
2021/10/16 14:04:28;;;;;;;9.93;6.77;;;;;;;;;;4435299;32;20317;-55
2021/10/16 14:06:54;;;;;;;20.77;9.70;;;;;;;;;;4436043;32;20329;-57
2021/10/16 14:09:19;;;;;;;53.30;31.73;;;;;;;;;;4444518;32;20280;-58
2021/10/16 14:11:46;;;;;;;12.07;7.30;;;;;;;;;;4433697;32;20659;-55
2021/10/16 14:14:11;;;;;;;17.83;10.23;;;;;;;;;;4420812;32;20577;-55
2021/10/16 14:16:37;;;;;;;25.60;13.43;;;;;;;;;;4435233;32;20288;-56
2021/10/16 14:19:02;;;;;;;10.47;7.43;;;;;;;;;;4434808;32;20318;-56
2021/10/16 14:21:28;;;;;;;16.20;8.27;;;;;;;;;;4435120;32;20299;-55
2021/10/16 14:23:53;;;;;;;18.90;11.90;;;;;;;;;;4432783;32;20368;-56
2021/10/16 14:26:19;;;;;;;17.33;10.60;;;;;;;;;;4435210;32;20261;-57
2021/10/16 14:28:44;;;;;;;22.17;11.90;;;;;;;;;;4433541;32;20235;-54